createdAt,value
2023-05-22T00:00:17.236Z,55.74
2023-05-22T00:00:49.899Z,55.63
2023-05-22T00:01:22.572Z,55.83
2023-05-22T00:01:55.286Z,55.83
2023-05-22T00:02:27.987Z,55.83
2023-05-22T00:03:00.914Z,55.74
2023-05-22T00:03:33.718Z,55.83
2023-05-22T00:04:06.412Z,55.94
2023-05-22T00:04:39.095Z,55.83
2023-05-22T00:05:11.851Z,55.94
2023-05-22T00:05:44.522Z,55.94
2023-05-22T00:06:17.197Z,55.83
2023-05-22T00:06:49.890Z,55.94
2023-05-22T00:07:22.560Z,56.04
2023-05-22T00:07:55.236Z,55.94
2023-05-22T00:08:29.445Z,55.94
2023-05-22T00:08:56.018Z,55.87
2023-05-22T00:09:28.664Z,55.87
2023-05-22T00:10:01.324Z,56.07
2023-05-22T00:10:33.994Z,56.04
2023-05-22T00:11:06.688Z,56.16
2023-05-22T00:11:39.368Z,56.07
2023-05-22T00:12:12.050Z,56.07
2023-05-22T00:12:44.734Z,56.16
2023-05-22T00:13:17.416Z,56.27
2023-05-22T00:13:50.080Z,56.27
2023-05-22T00:14:22.803Z,56.37
2023-05-22T00:14:55.461Z,56.27
2023-05-22T00:15:28.130Z,56.16
2023-05-22T00:15:59.248Z,56.16
2023-05-22T00:16:31.945Z,56.27
2023-05-22T00:17:04.808Z,56.07
2023-05-22T00:17:37.484Z,56.16
2023-05-22T00:18:08.617Z,56.07
2023-05-22T00:18:41.286Z,56.16
2023-05-22T00:19:14.015Z,56.27
2023-05-22T00:19:46.654Z,56.37
2023-05-22T00:20:19.323Z,56.47
2023-05-22T00:20:52.004Z,56.47
2023-05-22T00:21:24.677Z,56.47
2023-05-22T00:21:57.330Z,56.47
2023-05-22T00:22:29.998Z,56.57
2023-05-22T00:23:02.678Z,56.77
2023-05-22T00:23:35.365Z,56.67
2023-05-22T00:24:08.054Z,56.57
2023-05-22T00:24:40.713Z,56.67
2023-05-22T00:25:13.391Z,56.57
2023-05-22T00:25:46.090Z,56.60
2023-05-22T00:26:18.753Z,56.60
2023-05-22T00:26:51.427Z,56.60
2023-05-22T00:27:24.090Z,56.60
2023-05-22T00:27:56.761Z,56.40
2023-05-22T00:28:29.434Z,56.49
2023-05-22T00:29:02.173Z,56.70
2023-05-22T00:29:34.839Z,56.90
2023-05-22T00:30:07.515Z,56.80
2023-05-22T00:30:40.381Z,57.00
2023-05-22T00:31:06.762Z,56.80
2023-05-22T00:31:39.439Z,57.00
2023-05-22T00:32:12.110Z,56.90
2023-05-22T00:32:44.819Z,57.00
2023-05-22T00:33:17.526Z,57.00
2023-05-22T00:33:50.226Z,57.00
2023-05-22T00:34:22.998Z,57.00
2023-05-22T00:34:55.686Z,57.10
2023-05-22T00:35:28.373Z,57.10
2023-05-22T00:36:01.077Z,57.00
2023-05-22T00:36:33.755Z,56.70
2023-05-22T00:37:06.438Z,56.70
2023-05-22T00:37:39.100Z,56.70
2023-05-22T00:38:11.772Z,56.80
2023-05-22T00:38:44.468Z,56.80
2023-05-22T00:39:17.146Z,56.90
2023-05-22T00:39:49.795Z,56.92
2023-05-22T00:40:22.471Z,57.10
2023-05-22T00:40:55.139Z,57.03
2023-05-22T00:41:27.880Z,56.92
2023-05-22T00:42:00.526Z,56.82
2023-05-22T00:42:33.191Z,57.03
2023-05-22T00:43:05.851Z,57.23
2023-05-22T00:43:38.532Z,57.03
2023-05-22T00:44:11.194Z,57.03
2023-05-22T00:44:43.871Z,56.72
2023-05-22T00:45:16.604Z,57.12
2023-05-22T00:45:49.262Z,56.92
2023-05-22T00:46:22.026Z,57.12
2023-05-22T00:46:54.760Z,56.62
2023-05-22T00:47:27.567Z,56.82
2023-05-22T00:48:00.291Z,57.12
2023-05-22T00:48:32.966Z,57.12
2023-05-22T00:49:05.672Z,57.32
2023-05-22T00:49:38.335Z,57.12
2023-05-22T00:50:11.018Z,57.32
2023-05-22T00:50:43.683Z,56.92
2023-05-22T00:51:16.380Z,57.23
2023-05-22T00:51:49.056Z,56.92
2023-05-22T00:52:21.724Z,56.95
2023-05-22T00:52:54.364Z,57.15
2023-05-22T00:53:27.037Z,57.65
2023-05-22T00:53:59.712Z,57.76
2023-05-22T00:54:32.399Z,58.06
2023-05-22T00:55:05.114Z,57.86
2023-05-22T00:55:37.781Z,57.76
2023-05-22T00:56:10.446Z,57.76
2023-05-22T00:56:43.141Z,57.65
2023-05-22T00:57:15.810Z,57.76
2023-05-22T00:57:48.464Z,57.56
2023-05-22T00:58:21.151Z,57.76
2023-05-22T00:58:53.824Z,57.76
2023-05-22T00:59:26.494Z,57.76
2023-05-22T00:59:59.170Z,57.96
2023-05-22T01:00:31.842Z,57.86
2023-05-22T01:01:04.508Z,57.86
2023-05-22T01:01:37.224Z,57.76
2023-05-22T01:02:09.936Z,58.06
2023-05-22T01:02:42.680Z,57.86
2023-05-22T01:03:15.429Z,57.96
2023-05-22T01:03:48.192Z,58.16
2023-05-22T01:04:20.879Z,57.96
2023-05-22T01:04:53.533Z,57.86
2023-05-22T01:05:26.199Z,57.96
2023-05-22T01:05:58.866Z,57.96
2023-05-22T01:06:31.549Z,57.96
2023-05-22T01:07:04.223Z,57.86
2023-05-22T01:07:36.890Z,58.06
2023-05-22T01:08:09.549Z,58.29
2023-05-22T01:08:42.224Z,58.26
2023-05-22T01:09:14.955Z,58.29
2023-05-22T01:09:47.723Z,58.09
2023-05-22T01:10:20.372Z,58.19
2023-05-22T01:10:53.053Z,58.09
2023-05-22T01:11:25.720Z,58.19
2023-05-22T01:11:58.406Z,58.39
2023-05-22T01:12:31.071Z,58.39
2023-05-22T01:13:03.723Z,58.59
2023-05-22T01:13:36.388Z,58.09
2023-05-22T01:14:09.051Z,58.39
2023-05-22T01:14:41.729Z,58.49
2023-05-22T01:15:14.382Z,58.49
2023-05-22T01:15:47.057Z,58.59
2023-05-22T01:16:19.753Z,58.59
2023-05-22T01:16:52.448Z,58.89
2023-05-22T01:17:25.127Z,58.69
2023-05-22T01:17:57.889Z,58.59
2023-05-22T01:18:30.533Z,58.19
2023-05-22T01:19:03.223Z,57.98
2023-05-22T01:19:36.032Z,58.49
2023-05-22T01:20:08.704Z,58.29
2023-05-22T01:20:41.690Z,57.89
2023-05-22T01:21:07.930Z,57.89
2023-05-22T01:21:40.627Z,58.29
2023-05-22T01:22:13.313Z,58.29
2023-05-22T01:22:45.994Z,58.19
2023-05-22T01:23:18.652Z,58.52
2023-05-22T01:23:51.332Z,58.72
2023-05-22T01:24:23.997Z,58.72
2023-05-22T01:24:56.782Z,58.72
2023-05-22T01:25:29.431Z,58.72
2023-05-22T01:26:02.092Z,58.32
2023-05-22T01:26:34.766Z,58.32
2023-05-22T01:27:07.475Z,58.42
2023-05-22T01:27:40.147Z,58.72
2023-05-22T01:28:12.810Z,58.82
2023-05-22T01:28:45.484Z,58.62
2023-05-22T01:29:18.167Z,58.22
2023-05-22T01:29:50.824Z,58.32
2023-05-22T01:30:23.481Z,58.52
2023-05-22T01:30:56.154Z,58.62
2023-05-22T01:31:28.821Z,58.92
2023-05-22T01:32:01.503Z,58.82
2023-05-22T01:32:34.344Z,58.72
2023-05-22T01:33:07.109Z,59.05
2023-05-22T01:33:39.876Z,59.25
2023-05-22T01:34:12.562Z,59.25
2023-05-22T01:34:45.224Z,59.25
2023-05-22T01:35:17.898Z,59.15
2023-05-22T01:35:50.563Z,59.25
2023-05-22T01:36:23.219Z,59.45
2023-05-22T01:36:55.908Z,59.45
2023-05-22T01:37:28.570Z,59.35
2023-05-22T01:38:01.236Z,58.95
2023-05-22T01:38:33.905Z,58.45
2023-05-22T01:39:06.583Z,58.85
2023-05-22T01:39:39.247Z,58.75
2023-05-22T01:40:11.933Z,58.65
2023-05-22T01:40:44.570Z,58.95
2023-05-22T01:41:17.247Z,59.05
2023-05-22T01:41:49.892Z,59.05
2023-05-22T01:42:22.586Z,59.15
2023-05-22T01:42:55.254Z,59.35
2023-05-22T01:43:27.916Z,59.15
2023-05-22T01:44:00.580Z,59.15
2023-05-22T01:44:33.281Z,58.54
2023-05-22T01:45:05.976Z,58.54
2023-05-22T01:45:38.662Z,58.34
2023-05-22T01:46:11.384Z,58.34
2023-05-22T01:46:44.047Z,58.65
2023-05-22T01:47:16.702Z,58.17
2023-05-22T01:47:49.423Z,58.27
2023-05-22T01:48:22.089Z,58.58
2023-05-22T01:48:54.774Z,58.37
2023-05-22T01:49:27.426Z,58.27
2023-05-22T01:50:00.114Z,58.37
2023-05-22T01:50:32.797Z,58.37
2023-05-22T01:51:05.462Z,58.17
2023-05-22T01:51:38.111Z,58.37
2023-05-22T01:52:10.772Z,58.37
2023-05-22T01:52:43.457Z,58.37
2023-05-22T01:53:16.147Z,58.47
2023-05-22T01:53:48.812Z,58.27
2023-05-22T01:54:21.475Z,58.47
2023-05-22T01:54:54.170Z,58.67
2023-05-22T01:55:26.830Z,59.08
2023-05-22T01:55:59.516Z,59.28
2023-05-22T01:56:32.145Z,59.48
2023-05-22T01:57:04.811Z,58.87
2023-05-22T01:57:37.484Z,59.28
2023-05-22T01:58:10.171Z,58.98
2023-05-22T01:58:42.849Z,58.58
2023-05-22T01:59:15.521Z,58.87
2023-05-22T01:59:48.199Z,58.98
2023-05-22T02:00:20.862Z,59.18
2023-05-22T02:00:53.637Z,59.28
2023-05-22T02:01:26.490Z,59.38
2023-05-22T02:01:59.159Z,59.48
2023-05-22T02:02:31.919Z,59.28
2023-05-22T02:03:04.801Z,59.48
2023-05-22T02:03:37.556Z,59.38
2023-05-22T02:04:10.215Z,58.47
2023-05-22T02:04:42.898Z,58.27
2023-05-22T02:05:15.562Z,58.37
2023-05-22T02:05:48.289Z,58.58
2023-05-22T02:06:20.950Z,59.28
2023-05-22T02:06:53.616Z,59.18
2023-05-22T02:07:26.310Z,58.37
2023-05-22T02:07:58.956Z,58.37
2023-05-22T02:08:31.656Z,58.60
2023-05-22T02:09:04.318Z,59.38
2023-05-22T02:09:36.989Z,59.41
2023-05-22T02:10:09.651Z,58.78
2023-05-22T02:10:42.362Z,58.60
2023-05-22T02:11:14.998Z,58.70
2023-05-22T02:11:47.665Z,58.60
2023-05-22T02:12:20.334Z,58.50
2023-05-22T02:12:53.002Z,58.70
2023-05-22T02:13:25.686Z,59.11
2023-05-22T02:13:58.345Z,59.31
2023-05-22T02:14:31.017Z,59.61
2023-05-22T02:15:03.671Z,59.41
2023-05-22T02:15:36.434Z,59.71
2023-05-22T02:16:09.142Z,58.70
2023-05-22T02:16:41.867Z,58.91
2023-05-22T02:17:14.529Z,59.11
2023-05-22T02:17:47.217Z,59.21
2023-05-22T02:18:19.919Z,59.41
2023-05-22T02:18:52.582Z,59.51
2023-05-22T02:19:25.332Z,59.21
2023-05-22T02:19:58.019Z,59.21
2023-05-22T02:20:30.707Z,59.31
2023-05-22T02:21:03.407Z,58.50
2023-05-22T02:21:36.101Z,58.70
2023-05-22T02:22:08.759Z,59.31
2023-05-22T02:22:41.455Z,58.60
2023-05-22T02:23:14.144Z,58.50
2023-05-22T02:23:46.817Z,58.50
2023-05-22T02:24:19.482Z,58.40
2023-05-22T02:24:52.177Z,58.30
2023-05-22T02:25:24.840Z,58.20
2023-05-22T02:25:57.531Z,58.30
2023-05-22T02:26:30.164Z,58.30
2023-05-22T02:27:02.832Z,58.30
2023-05-22T02:27:35.499Z,58.50
2023-05-22T02:28:08.170Z,58.60
2023-05-22T02:28:40.856Z,58.50
2023-05-22T02:29:13.526Z,58.50
2023-05-22T02:29:46.199Z,58.60
2023-05-22T02:30:18.872Z,58.70
2023-05-22T02:30:51.599Z,58.80
2023-05-22T02:31:24.347Z,58.40
2023-05-22T02:31:56.998Z,58.50
2023-05-22T02:32:29.729Z,58.60
2023-05-22T02:33:02.397Z,58.91
2023-05-22T02:33:35.131Z,58.80
2023-05-22T02:34:07.794Z,59.11
2023-05-22T02:34:40.469Z,59.41
2023-05-22T02:35:13.135Z,58.63
2023-05-22T02:35:45.791Z,58.50
2023-05-22T02:36:18.462Z,58.53
2023-05-22T02:36:51.144Z,58.73
2023-05-22T02:37:23.808Z,58.83
2023-05-22T02:37:56.478Z,59.03
2023-05-22T02:38:29.194Z,59.34
2023-05-22T02:39:01.873Z,59.14
2023-05-22T02:39:34.538Z,58.63
2023-05-22T02:40:07.203Z,58.73
2023-05-22T02:40:40.232Z,58.83
2023-05-22T02:41:06.668Z,58.73
2023-05-22T02:41:39.312Z,58.93
2023-05-22T02:42:11.986Z,59.14
2023-05-22T02:42:44.661Z,59.14
2023-05-22T02:43:17.360Z,58.83
2023-05-22T02:43:50.058Z,58.93
2023-05-22T02:44:22.702Z,58.93
2023-05-22T02:44:55.382Z,58.93
2023-05-22T02:45:28.051Z,59.03
2023-05-22T02:46:00.734Z,59.14
2023-05-22T02:46:33.425Z,59.23
2023-05-22T02:47:06.115Z,59.54
2023-05-22T02:47:38.834Z,59.64
2023-05-22T02:48:11.535Z,59.84
2023-05-22T02:48:44.257Z,60.14
2023-05-22T02:49:16.910Z,59.14
2023-05-22T02:49:49.581Z,59.34
2023-05-22T02:50:22.285Z,59.34
2023-05-22T02:50:54.940Z,59.23
2023-05-22T02:51:27.607Z,59.44
2023-05-22T02:52:00.288Z,59.64
2023-05-22T02:52:32.968Z,59.94
2023-05-22T02:53:05.643Z,60.14
2023-05-22T02:53:38.316Z,60.35
2023-05-22T02:54:11.089Z,59.94
2023-05-22T02:54:43.762Z,59.67
2023-05-22T02:55:16.432Z,59.56
2023-05-22T02:55:49.117Z,59.77
2023-05-22T02:56:21.796Z,59.87
2023-05-22T02:56:54.470Z,60.17
2023-05-22T02:57:27.111Z,60.38
2023-05-22T02:57:59.788Z,60.17
2023-05-22T02:58:32.457Z,59.77
2023-05-22T02:59:05.124Z,59.87
2023-05-22T02:59:37.790Z,60.17
2023-05-22T03:00:10.463Z,60.17
2023-05-22T03:00:43.127Z,59.77
2023-05-22T03:01:15.809Z,59.77
2023-05-22T03:01:48.598Z,59.87
2023-05-22T03:02:21.296Z,59.97
2023-05-22T03:02:54.006Z,60.17
2023-05-22T03:03:26.917Z,60.17
2023-05-22T03:03:53.342Z,59.97
2023-05-22T03:04:26.070Z,60.07
2023-05-22T03:04:58.742Z,60.07
2023-05-22T03:05:31.413Z,60.07
2023-05-22T03:06:04.126Z,60.48
2023-05-22T03:06:36.798Z,60.27
2023-05-22T03:07:09.481Z,60.17
2023-05-22T03:07:42.150Z,60.27
2023-05-22T03:08:14.811Z,60.41
2023-05-22T03:08:47.492Z,60.68
2023-05-22T03:09:20.170Z,60.81
2023-05-22T03:09:52.838Z,60.88
2023-05-22T03:10:25.511Z,60.81
2023-05-22T03:10:58.193Z,61.01
2023-05-22T03:11:30.946Z,60.81
2023-05-22T03:12:03.581Z,60.81
2023-05-22T03:12:36.257Z,61.01
2023-05-22T03:13:08.937Z,60.81
2023-05-22T03:13:41.674Z,60.71
2023-05-22T03:14:14.344Z,60.81
2023-05-22T03:14:47.026Z,61.11
2023-05-22T03:15:19.713Z,61.32
2023-05-22T03:15:52.527Z,60.91
2023-05-22T03:16:25.262Z,61.01
2023-05-22T03:16:57.973Z,61.01
2023-05-22T03:17:30.702Z,61.32
2023-05-22T03:18:03.416Z,61.32
2023-05-22T03:18:36.090Z,61.32
2023-05-22T03:19:08.877Z,61.32
2023-05-22T03:19:41.558Z,61.55
2023-05-22T03:20:14.241Z,61.75
2023-05-22T03:20:46.915Z,61.85
2023-05-22T03:21:19.590Z,61.55
2023-05-22T03:21:52.270Z,61.75
2023-05-22T03:22:23.379Z,61.75
2023-05-22T03:22:56.048Z,62.15
2023-05-22T03:23:28.714Z,62.26
2023-05-22T03:24:01.398Z,61.75
2023-05-22T03:24:34.076Z,61.65
2023-05-22T03:25:06.740Z,61.75
2023-05-22T03:25:39.402Z,61.95
2023-05-22T03:26:12.070Z,62.05
2023-05-22T03:26:44.752Z,61.75
2023-05-22T03:27:17.412Z,61.95
2023-05-22T03:27:50.078Z,62.05
2023-05-22T03:28:22.735Z,62.05
2023-05-22T03:28:55.491Z,62.26
2023-05-22T03:29:28.157Z,62.26
2023-05-22T03:30:00.830Z,62.46
2023-05-22T03:30:33.500Z,62.35
2023-05-22T03:31:06.169Z,62.35
2023-05-22T03:31:38.834Z,62.35
2023-05-22T03:32:11.511Z,62.35
2023-05-22T03:32:44.197Z,62.35
2023-05-22T03:33:16.913Z,62.46
2023-05-22T03:33:49.646Z,62.15
2023-05-22T03:34:22.343Z,62.35
2023-05-22T03:34:55.029Z,62.56
2023-05-22T03:35:27.712Z,62.56
2023-05-22T03:36:00.374Z,62.66
2023-05-22T03:36:33.035Z,62.76
2023-05-22T03:37:05.712Z,62.86
2023-05-22T03:37:38.389Z,63.30
2023-05-22T03:38:11.053Z,62.89
2023-05-22T03:38:43.741Z,63.30
2023-05-22T03:39:16.402Z,63.09
2023-05-22T03:39:49.078Z,62.79
2023-05-22T03:40:21.745Z,62.89
2023-05-22T03:40:54.427Z,62.89
2023-05-22T03:41:27.129Z,63.09
2023-05-22T03:41:59.815Z,63.09
2023-05-22T03:42:32.512Z,63.60
2023-05-22T03:43:05.181Z,63.20
2023-05-22T03:43:37.861Z,63.30
2023-05-22T03:44:10.538Z,63.30
2023-05-22T03:44:43.204Z,63.40
2023-05-22T03:45:15.869Z,63.60
2023-05-22T03:45:48.599Z,63.70
2023-05-22T03:46:21.360Z,63.50
2023-05-22T03:46:54.103Z,63.40
2023-05-22T03:47:26.787Z,63.60
2023-05-22T03:47:59.468Z,63.90
2023-05-22T03:48:32.146Z,64.21
2023-05-22T03:49:04.828Z,64.11
2023-05-22T03:49:37.503Z,64.01
2023-05-22T03:50:10.179Z,64.21
2023-05-22T03:50:42.830Z,64.41
2023-05-22T03:51:16.288Z,64.61
2023-05-22T03:51:43.700Z,64.51
2023-05-22T03:52:16.362Z,64.41
2023-05-22T03:52:49.032Z,64.41
2023-05-22T03:53:21.707Z,64.41
2023-05-22T03:53:54.424Z,64.11
2023-05-22T03:54:27.131Z,64.01
2023-05-22T03:54:59.798Z,64.21
2023-05-22T03:55:32.460Z,64.21
2023-05-22T03:56:05.128Z,64.31
2023-05-22T03:56:37.802Z,64.61
2023-05-22T03:57:10.484Z,65.12
2023-05-22T03:57:43.127Z,65.02
2023-05-22T03:58:15.785Z,64.72
2023-05-22T03:58:48.477Z,64.51
2023-05-22T03:59:21.152Z,64.61
2023-05-22T03:59:53.854Z,64.18
2023-05-22T04:00:27.156Z,63.90
2023-05-22T04:00:53.355Z,63.90
2023-05-22T04:01:26.030Z,63.70
2023-05-22T04:01:58.749Z,63.70
2023-05-22T04:02:31.470Z,64.01
2023-05-22T04:03:04.210Z,64.31
2023-05-22T04:03:37.025Z,64.51
2023-05-22T04:04:09.746Z,64.51
2023-05-22T04:04:42.428Z,64.61
2023-05-22T04:05:15.100Z,64.72
2023-05-22T04:05:47.757Z,64.82
2023-05-22T04:06:20.426Z,64.82
2023-05-22T04:06:53.109Z,64.82
2023-05-22T04:07:25.776Z,64.72
2023-05-22T04:07:58.447Z,64.82
2023-05-22T04:08:31.129Z,64.82
2023-05-22T04:09:03.778Z,65.02
2023-05-22T04:09:36.462Z,64.92
2023-05-22T04:10:09.141Z,65.02
2023-05-22T04:10:41.907Z,64.92
2023-05-22T04:11:14.651Z,64.82
2023-05-22T04:11:47.338Z,64.82
2023-05-22T04:12:20.035Z,64.82
2023-05-22T04:12:52.694Z,64.82
2023-05-22T04:13:25.355Z,64.82
2023-05-22T04:13:58.028Z,64.51
2023-05-22T04:14:30.735Z,64.61
2023-05-22T04:15:03.422Z,64.51
2023-05-22T04:15:36.119Z,64.41
2023-05-22T04:16:08.858Z,64.72
2023-05-22T04:16:41.537Z,64.82
2023-05-22T04:17:14.193Z,65.12
2023-05-22T04:17:46.903Z,65.12
2023-05-22T04:18:19.599Z,65.22
2023-05-22T04:18:52.358Z,65.32
2023-05-22T04:19:25.044Z,65.42
2023-05-22T04:19:57.860Z,65.83
2023-05-22T04:20:30.541Z,65.93
2023-05-22T04:21:03.195Z,65.73
2023-05-22T04:21:35.892Z,65.42
2023-05-22T04:22:08.589Z,65.42
2023-05-22T04:22:41.363Z,65.42
2023-05-22T04:23:14.067Z,65.39
2023-05-22T04:23:46.730Z,65.50
2023-05-22T04:24:19.418Z,65.50
2023-05-22T04:24:52.090Z,65.59
2023-05-22T04:25:24.772Z,65.39
2023-05-22T04:25:57.438Z,65.39
2023-05-22T04:26:30.112Z,65.59
2023-05-22T04:27:02.794Z,65.59
2023-05-22T04:27:35.503Z,65.50
2023-05-22T04:28:08.167Z,65.59
2023-05-22T04:28:40.827Z,64.79
2023-05-22T04:29:13.497Z,64.69
2023-05-22T04:29:46.231Z,64.69
2023-05-22T04:30:18.905Z,64.99
2023-05-22T04:30:51.596Z,65.19
2023-05-22T04:31:24.272Z,65.29
2023-05-22T04:31:56.947Z,65.70
2023-05-22T04:33:02.312Z,65.59
2023-05-22T04:33:34.978Z,65.59
2023-05-22T04:34:07.648Z,65.59
2023-05-22T04:34:40.319Z,65.80
2023-05-22T04:35:13.003Z,65.19
2023-05-22T04:35:45.657Z,64.99
2023-05-22T04:36:18.325Z,64.69
2023-05-22T04:36:50.997Z,65.09
2023-05-22T04:37:23.660Z,64.99
2023-05-22T04:37:56.318Z,65.19
2023-05-22T04:38:28.987Z,65.29
2023-05-22T04:39:01.658Z,65.09
2023-05-22T04:39:34.338Z,65.19
2023-05-22T04:40:07.008Z,65.29
2023-05-22T04:40:40.031Z,65.59
2023-05-22T04:41:06.380Z,65.70
2023-05-22T04:41:39.063Z,65.19
2023-05-22T04:42:11.728Z,64.99
2023-05-22T04:42:44.402Z,64.89
2023-05-22T04:43:17.047Z,64.96
2023-05-22T04:43:49.711Z,64.99
2023-05-22T04:44:22.379Z,65.36
2023-05-22T04:44:55.071Z,65.16
2023-05-22T04:45:27.768Z,65.26
2023-05-22T04:46:00.417Z,65.26
2023-05-22T04:46:33.141Z,65.06
2023-05-22T04:47:07.759Z,65.06
2023-05-22T04:47:34.406Z,65.26
2023-05-22T04:48:07.188Z,64.55
2023-05-22T04:48:39.911Z,64.86
2023-05-22T04:49:12.573Z,64.96
2023-05-22T04:49:45.259Z,64.55
2023-05-22T04:50:17.932Z,64.76
2023-05-22T04:50:50.603Z,64.86
2023-05-22T04:51:23.301Z,64.96
2023-05-22T04:51:55.970Z,64.86
2023-05-22T04:52:28.648Z,64.35
2023-05-22T04:53:01.332Z,64.35
2023-05-22T04:53:33.999Z,64.76
2023-05-22T04:54:06.728Z,64.02
2023-05-22T04:54:39.375Z,64.45
2023-05-22T04:55:12.138Z,64.32
2023-05-22T04:55:44.810Z,64.52
2023-05-22T04:56:31.908Z,64.62
2023-05-22T04:56:49.563Z,64.73
2023-05-22T04:57:15.732Z,64.83
2023-05-22T04:57:48.431Z,64.83
2023-05-22T04:58:21.072Z,64.93
2023-05-22T04:58:53.744Z,64.73
2023-05-22T04:59:26.434Z,64.73
2023-05-22T04:59:59.099Z,64.83
2023-05-22T05:00:31.776Z,64.83
2023-05-22T05:01:04.465Z,64.62
2023-05-22T05:01:37.206Z,64.32
2023-05-22T05:02:09.935Z,64.22
2023-05-22T05:02:42.646Z,64.42
2023-05-22T05:03:15.455Z,64.09
2023-05-22T05:03:48.183Z,64.09
2023-05-22T05:04:20.900Z,64.59
2023-05-22T05:04:53.605Z,64.29
2023-05-22T05:05:26.270Z,63.99
2023-05-22T05:05:58.929Z,63.68
2023-05-22T05:06:31.602Z,63.78
2023-05-22T05:07:04.281Z,63.68
2023-05-22T05:07:36.951Z,63.78
2023-05-22T05:08:09.615Z,63.89
2023-05-22T05:08:42.273Z,64.29
2023-05-22T05:09:13.359Z,63.89
2023-05-22T05:09:46.049Z,63.68
2023-05-22T05:10:18.737Z,63.99
2023-05-22T05:10:51.398Z,63.89
2023-05-22T05:11:24.069Z,63.78
2023-05-22T05:11:56.738Z,63.89
2023-05-22T05:12:29.417Z,63.28
2023-05-22T05:13:02.172Z,63.38
2023-05-22T05:13:34.802Z,63.68
2023-05-22T05:14:07.490Z,63.99
2023-05-22T05:14:40.158Z,64.19
2023-05-22T05:15:12.835Z,63.78
2023-05-22T05:15:45.509Z,63.58
2023-05-22T05:16:18.187Z,63.89
2023-05-22T05:16:50.901Z,64.09
2023-05-22T05:17:23.580Z,63.99
2023-05-22T05:17:56.280Z,63.78
2023-05-22T05:18:28.955Z,63.92
2023-05-22T05:19:01.700Z,64.22
2023-05-22T05:19:36.785Z,64.93
2023-05-22T05:20:03.232Z,64.52
2023-05-22T05:20:35.926Z,64.70
2023-05-22T05:21:08.586Z,64.12
2023-05-22T05:21:41.258Z,64.22
2023-05-22T05:22:13.921Z,64.39
2023-05-22T05:22:46.618Z,65.10
2023-05-22T05:23:19.266Z,64.59
2023-05-22T05:23:51.949Z,64.19
2023-05-22T05:24:24.617Z,64.49
2023-05-22T05:24:57.274Z,64.79
2023-05-22T05:25:29.962Z,65.00
2023-05-22T05:26:02.688Z,65.10
2023-05-22T05:26:35.361Z,64.70
2023-05-22T05:27:08.038Z,64.39
2023-05-22T05:27:40.705Z,64.49
2023-05-22T05:28:13.395Z,64.59
2023-05-22T05:28:46.035Z,64.79
2023-05-22T05:29:18.752Z,64.70
2023-05-22T05:29:51.381Z,65.20
2023-05-22T05:30:24.066Z,65.30
2023-05-22T05:30:56.772Z,64.90
2023-05-22T05:31:29.468Z,65.00
2023-05-22T05:32:02.154Z,65.00
2023-05-22T05:32:34.860Z,64.79
2023-05-22T05:33:07.646Z,64.70
2023-05-22T05:33:40.349Z,64.39
2023-05-22T05:34:13.034Z,64.39
2023-05-22T05:34:45.709Z,64.70
2023-05-22T05:35:18.399Z,64.76
2023-05-22T05:35:51.099Z,65.27
2023-05-22T05:36:23.768Z,65.17
2023-05-22T05:36:56.442Z,64.67
2023-05-22T05:37:29.106Z,64.76
2023-05-22T05:38:01.777Z,64.67
2023-05-22T05:38:34.451Z,64.67
2023-05-22T05:39:07.108Z,64.87
2023-05-22T05:39:39.784Z,64.67
2023-05-22T05:40:12.449Z,64.36
2023-05-22T05:40:45.124Z,64.16
2023-05-22T05:41:17.794Z,63.85
2023-05-22T05:41:50.462Z,63.85
2023-05-22T05:42:23.161Z,63.73
2023-05-22T05:42:55.826Z,63.42
2023-05-22T05:43:28.769Z,63.52
2023-05-22T05:44:01.454Z,64.13
2023-05-22T05:44:34.130Z,63.82
2023-05-22T05:45:06.859Z,64.03
2023-05-22T05:45:39.580Z,63.82
2023-05-22T05:46:12.271Z,64.23
2023-05-22T05:46:45.047Z,64.23
2023-05-22T05:47:17.752Z,64.13
2023-05-22T05:47:50.440Z,63.73
2023-05-22T05:48:23.115Z,63.62
2023-05-22T05:48:55.788Z,63.52
2023-05-22T05:49:28.447Z,63.22
2023-05-22T05:50:01.145Z,62.82
2023-05-22T05:50:33.836Z,62.79
2023-05-22T05:51:06.489Z,62.31
2023-05-22T05:51:39.227Z,62.62
2023-05-22T05:52:11.894Z,63.22
2023-05-22T05:52:44.588Z,63.12
2023-05-22T05:53:17.242Z,63.32
2023-05-22T05:53:49.913Z,63.39
2023-05-22T05:54:22.581Z,63.49
2023-05-22T05:54:55.271Z,63.49
2023-05-22T05:55:28.096Z,63.90
2023-05-22T05:56:00.995Z,63.59
2023-05-22T05:56:33.661Z,62.88
2023-05-22T05:57:06.336Z,62.88
2023-05-22T05:57:39.078Z,63.19
2023-05-22T05:58:11.743Z,63.29
2023-05-22T05:58:44.440Z,63.59
2023-05-22T05:59:17.151Z,63.79
2023-05-22T05:59:49.795Z,63.79
2023-05-22T06:00:22.503Z,63.49
2023-05-22T06:00:55.222Z,63.59
2023-05-22T06:01:27.953Z,63.16
2023-05-22T06:02:00.667Z,63.06
2023-05-22T06:02:33.397Z,62.96
2023-05-22T06:03:06.270Z,63.16
2023-05-22T06:03:39.124Z,62.85
2023-05-22T06:04:11.792Z,62.55
2023-05-22T06:04:44.441Z,62.96
2023-05-22T06:05:17.174Z,62.55
2023-05-22T06:05:49.909Z,62.55
2023-05-22T06:06:22.732Z,62.63
2023-05-22T06:06:55.447Z,62.43
2023-05-22T06:07:28.108Z,61.72
2023-05-22T06:08:00.770Z,61.82
2023-05-22T06:08:33.448Z,62.22
2023-05-22T06:09:06.179Z,62.32
2023-05-22T06:09:38.893Z,61.61
2023-05-22T06:10:09.998Z,62.02
2023-05-22T06:10:42.694Z,62.32
2023-05-22T06:11:15.324Z,62.22
2023-05-22T06:11:47.992Z,62.32
2023-05-22T06:12:20.675Z,62.52
2023-05-22T06:12:53.353Z,62.12
2023-05-22T06:13:26.029Z,62.43
2023-05-22T06:13:58.735Z,62.12
2023-05-22T06:14:31.409Z,62.22
2023-05-22T06:15:04.105Z,62.12
2023-05-22T06:15:36.787Z,61.92
2023-05-22T06:16:09.494Z,62.22
2023-05-22T06:16:40.602Z,62.22
2023-05-22T06:17:11.674Z,62.09
2023-05-22T06:17:44.385Z,61.99
2023-05-22T06:18:17.030Z,61.89
2023-05-22T06:18:49.789Z,61.69
2023-05-22T06:19:22.544Z,61.89
2023-05-22T06:19:55.186Z,61.69
2023-05-22T06:20:27.855Z,61.49
2023-05-22T06:21:00.577Z,61.59
2023-05-22T06:21:33.268Z,61.49
2023-05-22T06:22:05.948Z,61.46
2023-05-22T06:22:38.622Z,61.46
2023-05-22T06:23:11.305Z,61.56
2023-05-22T06:23:43.961Z,61.66
2023-05-22T06:24:16.628Z,61.66
2023-05-22T06:24:49.289Z,61.66
2023-05-22T06:25:21.966Z,61.16
2023-05-22T06:25:54.665Z,61.16
2023-05-22T06:26:27.331Z,61.33
2023-05-22T06:27:00.002Z,61.13
2023-05-22T06:27:32.673Z,61.23
2023-05-22T06:28:03.755Z,61.43
2023-05-22T06:28:36.414Z,61.43
2023-05-22T06:29:09.152Z,61.53
2023-05-22T06:29:41.780Z,61.13
2023-05-22T06:30:15.722Z,60.52
2023-05-22T06:30:44.861Z,61.43
2023-05-22T06:31:11.187Z,61.23
2023-05-22T06:31:43.884Z,61.23
2023-05-22T06:32:16.629Z,61.23
2023-05-22T06:32:49.398Z,61.13
2023-05-22T06:33:22.144Z,61.20
2023-05-22T06:33:55.031Z,61.30
2023-05-22T06:34:27.877Z,61.60
2023-05-22T06:35:00.553Z,61.10
2023-05-22T06:35:31.696Z,60.89
2023-05-22T06:36:04.370Z,60.39
2023-05-22T06:36:37.044Z,60.47
2023-05-22T06:37:09.716Z,60.77
2023-05-22T06:37:42.410Z,60.16
2023-05-22T06:38:15.077Z,60.77
2023-05-22T06:38:47.767Z,60.97
2023-05-22T06:39:20.446Z,60.36
2023-05-22T06:39:53.114Z,60.27
2023-05-22T06:40:25.793Z,59.86
2023-05-22T06:40:58.510Z,60.16
2023-05-22T06:41:31.237Z,60.36
2023-05-22T06:42:03.937Z,60.16
2023-05-22T06:42:36.718Z,59.56
2023-05-22T06:43:09.378Z,59.56
2023-05-22T06:43:42.053Z,59.83
2023-05-22T06:44:14.763Z,59.74
2023-05-22T06:44:47.406Z,59.53
2023-05-22T06:45:20.155Z,59.74
2023-05-22T06:45:52.883Z,59.63
2023-05-22T06:46:26.241Z,59.43
2023-05-22T06:46:52.483Z,59.33
2023-05-22T06:47:25.218Z,59.63
2023-05-22T06:47:57.963Z,59.74
2023-05-22T06:48:30.629Z,59.33
2023-05-22T06:49:03.330Z,59.63
2023-05-22T06:49:35.992Z,59.80
2023-05-22T06:50:08.659Z,59.60
2023-05-22T06:50:41.438Z,59.80
2023-05-22T06:51:14.083Z,59.80
2023-05-22T06:51:46.759Z,59.80
2023-05-22T06:52:19.435Z,59.70
2023-05-22T06:52:52.097Z,58.90
2023-05-22T06:53:24.766Z,58.93
2023-05-22T06:53:57.438Z,59.03
2023-05-22T06:54:30.106Z,59.53
2023-05-22T06:55:02.849Z,60.13
2023-05-22T06:55:35.535Z,60.44
2023-05-22T06:56:08.195Z,59.94
2023-05-22T06:56:40.869Z,60.64
2023-05-22T06:57:13.549Z,60.53
2023-05-22T06:57:46.226Z,60.33
2023-05-22T06:58:18.914Z,60.31
2023-05-22T06:58:51.607Z,60.91
2023-05-22T06:59:24.318Z,59.50
2023-05-22T06:59:56.963Z,59.91